sensor_id;sensor_type;location;lat;lon;timestamp;temperature;humidity
45329;DHT22;72636;48.160;11.428;2023-09-07T00:01:43;15.60;99.90
45329;DHT22;72636;48.160;11.428;2023-09-07T00:04:09;15.60;99.90
45329;DHT22;72636;48.160;11.428;2023-09-07T00:06:35;15.60;99.90
45329;DHT22;72636;48.160;11.428;2023-09-07T00:09:02;15.60;99.90
45329;DHT22;72636;48.160;11.428;2023-09-07T00:11:27;15.60;99.90
45329;DHT22;72636;48.160;11.428;2023-09-07T00:13:53;15.50;99.90
45329;DHT22;72636;48.160;11.428;2023-09-07T00:16:19;15.50;99.90
45329;DHT22;72636;48.160;11.428;2023-09-07T00:18:44;15.50;99.90
45329;DHT22;72636;48.160;11.428;2023-09-07T00:21:10;15.50;99.90
45329;DHT22;72636;48.160;11.428;2023-09-07T00:23:35;15.40;99.90
45329;DHT22;72636;48.160;11.428;2023-09-07T00:26:01;15.40;99.90
45329;DHT22;72636;48.160;11.428;2023-09-07T00:28:26;15.40;99.90
45329;DHT22;72636;48.160;11.428;2023-09-07T00:30:52;15.40;99.90
45329;DHT22;72636;48.160;11.428;2023-09-07T00:33:18;15.40;99.90
45329;DHT22;72636;48.160;11.428;2023-09-07T00:35:43;15.30;99.90
45329;DHT22;72636;48.160;11.428;2023-09-07T00:38:09;15.30;99.90
45329;DHT22;72636;48.160;11.428;2023-09-07T00:40:34;15.40;99.90
45329;DHT22;72636;48.160;11.428;2023-09-07T00:43:00;15.40;99.90
45329;DHT22;72636;48.160;11.428;2023-09-07T00:45:26;15.40;99.90
45329;DHT22;72636;48.160;11.428;2023-09-07T00:47:52;15.30;99.90
45329;DHT22;72636;48.160;11.428;2023-09-07T00:50:17;15.30;99.90
45329;DHT22;72636;48.160;11.428;2023-09-07T00:52:43;15.30;99.90
45329;DHT22;72636;48.160;11.428;2023-09-07T00:55:10;15.30;99.90
45329;DHT22;72636;48.160;11.428;2023-09-07T00:57:36;15.20;99.90
45329;DHT22;72636;48.160;11.428;2023-09-07T01:00:03;15.20;99.90
45329;DHT22;72636;48.160;11.428;2023-09-07T01:02:29;15.20;99.90
45329;DHT22;72636;48.160;11.428;2023-09-07T01:04:56;15.20;99.90
45329;DHT22;72636;48.160;11.428;2023-09-07T01:07:25;15.10;99.90
45329;DHT22;72636;48.160;11.428;2023-09-07T01:09:59;15.10;99.90
45329;DHT22;72636;48.160;11.428;2023-09-07T01:12:25;15.10;99.90
45329;DHT22;72636;48.160;11.428;2023-09-07T01:14:50;15.10;99.90
45329;DHT22;72636;48.160;11.428;2023-09-07T01:17:16;15.10;99.90
45329;DHT22;72636;48.160;11.428;2023-09-07T01:19:42;15.00;99.90
45329;DHT22;72636;48.160;11.428;2023-09-07T01:22:09;15.00;99.90
45329;DHT22;72636;48.160;11.428;2023-09-07T01:24:36;15.00;99.90
45329;DHT22;72636;48.160;11.428;2023-09-07T01:27:03;15.00;99.90
45329;DHT22;72636;48.160;11.428;2023-09-07T01:29:30;14.90;99.90
45329;DHT22;72636;48.160;11.428;2023-09-07T01:31:56;14.90;99.90
45329;DHT22;72636;48.160;11.428;2023-09-07T01:34:23;14.90;99.90
45329;DHT22;72636;48.160;11.428;2023-09-07T01:36:49;14.90;99.90
45329;DHT22;72636;48.160;11.428;2023-09-07T01:39:14;14.90;99.90
45329;DHT22;72636;48.160;11.428;2023-09-07T01:41:40;14.90;99.90
45329;DHT22;72636;48.160;11.428;2023-09-07T01:44:06;14.90;99.90
45329;DHT22;72636;48.160;11.428;2023-09-07T01:46:31;14.80;99.90
45329;DHT22;72636;48.160;11.428;2023-09-07T01:48:57;14.80;99.90
45329;DHT22;72636;48.160;11.428;2023-09-07T01:51:23;14.80;99.90
45329;DHT22;72636;48.160;11.428;2023-09-07T01:53:48;14.70;99.90
45329;DHT22;72636;48.160;11.428;2023-09-07T01:56:18;14.70;99.90
45329;DHT22;72636;48.160;11.428;2023-09-07T01:58:44;14.70;99.90
45329;DHT22;72636;48.160;11.428;2023-09-07T02:01:25;14.60;99.90
45329;DHT22;72636;48.160;11.428;2023-09-07T02:03:51;14.60;99.90
45329;DHT22;72636;48.160;11.428;2023-09-07T02:06:17;14.60;99.90
45329;DHT22;72636;48.160;11.428;2023-09-07T02:08:43;14.60;99.90
45329;DHT22;72636;48.160;11.428;2023-09-07T02:11:09;14.50;99.90
45329;DHT22;72636;48.160;11.428;2023-09-07T02:13:35;14.50;99.90
45329;DHT22;72636;48.160;11.428;2023-09-07T02:16:04;14.50;99.90
45329;DHT22;72636;48.160;11.428;2023-09-07T02:18:31;14.40;99.90
45329;DHT22;72636;48.160;11.428;2023-09-07T02:21:04;14.40;99.90
45329;DHT22;72636;48.160;11.428;2023-09-07T02:23:33;14.30;99.90
45329;DHT22;72636;48.160;11.428;2023-09-07T02:25:59;14.40;99.90
45329;DHT22;72636;48.160;11.428;2023-09-07T02:28:25;14.30;99.90
45329;DHT22;72636;48.160;11.428;2023-09-07T02:30:54;14.30;99.90
45329;DHT22;72636;48.160;11.428;2023-09-07T02:33:20;14.30;99.90
45329;DHT22;72636;48.160;11.428;2023-09-07T02:35:48;14.20;99.90
45329;DHT22;72636;48.160;11.428;2023-09-07T02:38:16;14.20;99.90
45329;DHT22;72636;48.160;11.428;2023-09-07T02:40:45;14.20;99.90
45329;DHT22;72636;48.160;11.428;2023-09-07T02:43:11;14.20;99.90
45329;DHT22;72636;48.160;11.428;2023-09-07T02:45:38;14.20;99.90
45329;DHT22;72636;48.160;11.428;2023-09-07T02:48:04;14.10;99.90
45329;DHT22;72636;48.160;11.428;2023-09-07T02:50:31;14.10;99.90
45329;DHT22;72636;48.160;11.428;2023-09-07T02:52:57;14.10;99.90
45329;DHT22;72636;48.160;11.428;2023-09-07T02:55:23;14.10;99.90
45329;DHT22;72636;48.160;11.428;2023-09-07T02:57:49;14.00;99.90
45329;DHT22;72636;48.160;11.428;2023-09-07T03:00:14;14.00;99.90
45329;DHT22;72636;48.160;11.428;2023-09-07T03:02:43;14.00;99.90
45329;DHT22;72636;48.160;11.428;2023-09-07T03:05:09;14.00;99.90
45329;DHT22;72636;48.160;11.428;2023-09-07T03:07:34;14.00;99.90
45329;DHT22;72636;48.160;11.428;2023-09-07T03:10:00;14.00;99.90
45329;DHT22;72636;48.160;11.428;2023-09-07T03:12:27;13.90;99.90
45329;DHT22;72636;48.160;11.428;2023-09-07T03:14:53;13.90;99.90
45329;DHT22;72636;48.160;11.428;2023-09-07T03:17:19;13.90;99.90
45329;DHT22;72636;48.160;11.428;2023-09-07T03:19:46;13.90;99.90
45329;DHT22;72636;48.160;11.428;2023-09-07T03:22:13;13.80;99.90
45329;DHT22;72636;48.160;11.428;2023-09-07T03:24:38;13.80;99.90
45329;DHT22;72636;48.160;11.428;2023-09-07T03:27:04;13.80;99.90
45329;DHT22;72636;48.160;11.428;2023-09-07T03:29:33;13.80;99.90
45329;DHT22;72636;48.160;11.428;2023-09-07T03:32:01;13.80;99.90
45329;DHT22;72636;48.160;11.428;2023-09-07T03:34:26;13.80;99.90
45329;DHT22;72636;48.160;11.428;2023-09-07T03:36:52;13.80;99.90
45329;DHT22;72636;48.160;11.428;2023-09-07T03:39:18;13.70;99.90
45329;DHT22;72636;48.160;11.428;2023-09-07T03:41:44;13.70;99.90
45329;DHT22;72636;48.160;11.428;2023-09-07T03:44:10;13.80;99.90
45329;DHT22;72636;48.160;11.428;2023-09-07T03:46:36;13.70;99.90
45329;DHT22;72636;48.160;11.428;2023-09-07T03:49:02;13.60;99.90
45329;DHT22;72636;48.160;11.428;2023-09-07T03:51:28;13.60;99.90
45329;DHT22;72636;48.160;11.428;2023-09-07T03:53:53;13.60;99.90
45329;DHT22;72636;48.160;11.428;2023-09-07T03:56:19;13.60;99.90
45329;DHT22;72636;48.160;11.428;2023-09-07T03:58:45;13.50;99.90
45329;DHT22;72636;48.160;11.428;2023-09-07T04:01:13;13.50;99.90
45329;DHT22;72636;48.160;11.428;2023-09-07T04:03:39;13.50;99.90
45329;DHT22;72636;48.160;11.428;2023-09-07T04:06:05;13.50;99.90
45329;DHT22;72636;48.160;11.428;2023-09-07T04:08:31;13.50;99.90
45329;DHT22;72636;48.160;11.428;2023-09-07T04:10:57;13.50;99.90
45329;DHT22;72636;48.160;11.428;2023-09-07T04:13:22;13.50;99.90
45329;DHT22;72636;48.160;11.428;2023-09-07T04:15:48;13.40;99.90
45329;DHT22;72636;48.160;11.428;2023-09-07T04:18:14;13.40;99.90
45329;DHT22;72636;48.160;11.428;2023-09-07T04:20:43;13.40;99.90
45329;DHT22;72636;48.160;11.428;2023-09-07T04:23:09;13.40;99.90
45329;DHT22;72636;48.160;11.428;2023-09-07T04:25:35;13.40;99.90
45329;DHT22;72636;48.160;11.428;2023-09-07T04:28:00;13.40;99.90
45329;DHT22;72636;48.160;11.428;2023-09-07T04:30:26;13.40;99.90
45329;DHT22;72636;48.160;11.428;2023-09-07T04:32:52;13.30;99.90
45329;DHT22;72636;48.160;11.428;2023-09-07T04:35:18;13.30;99.90
45329;DHT22;72636;48.160;11.428;2023-09-07T04:37:44;13.30;99.90
45329;DHT22;72636;48.160;11.428;2023-09-07T04:40:10;13.20;99.90
45329;DHT22;72636;48.160;11.428;2023-09-07T04:42:36;13.20;99.90
45329;DHT22;72636;48.160;11.428;2023-09-07T04:45:04;13.20;99.90
45329;DHT22;72636;48.160;11.428;2023-09-07T04:47:30;13.20;99.90
45329;DHT22;72636;48.160;11.428;2023-09-07T04:49:55;13.10;99.90
45329;DHT22;72636;48.160;11.428;2023-09-07T04:52:21;13.10;99.90
45329;DHT22;72636;48.160;11.428;2023-09-07T04:54:47;13.10;99.90
45329;DHT22;72636;48.160;11.428;2023-09-07T04:57:16;13.10;99.90
45329;DHT22;72636;48.160;11.428;2023-09-07T04:59:42;13.10;99.90
45329;DHT22;72636;48.160;11.428;2023-09-07T05:02:07;13.20;99.90
45329;DHT22;72636;48.160;11.428;2023-09-07T05:04:33;13.10;99.90
45329;DHT22;72636;48.160;11.428;2023-09-07T05:06:59;13.10;99.90
45329;DHT22;72636;48.160;11.428;2023-09-07T05:09:24;13.10;99.90
45329;DHT22;72636;48.160;11.428;2023-09-07T05:11:50;13.10;99.90
45329;DHT22;72636;48.160;11.428;2023-09-07T05:14:16;13.10;99.90
45329;DHT22;72636;48.160;11.428;2023-09-07T05:16:45;13.10;99.90
45329;DHT22;72636;48.160;11.428;2023-09-07T05:19:10;13.10;99.90
45329;DHT22;72636;48.160;11.428;2023-09-07T05:21:36;13.10;99.90
45329;DHT22;72636;48.160;11.428;2023-09-07T05:24:01;13.20;99.90
45329;DHT22;72636;48.160;11.428;2023-09-07T05:26:27;13.20;99.90
45329;DHT22;72636;48.160;11.428;2023-09-07T05:28:53;13.20;99.90
45329;DHT22;72636;48.160;11.428;2023-09-07T05:31:19;13.20;99.90
45329;DHT22;72636;48.160;11.428;2023-09-07T05:33:44;13.30;99.90
45329;DHT22;72636;48.160;11.428;2023-09-07T05:36:10;13.30;99.90
45329;DHT22;72636;48.160;11.428;2023-09-07T05:38:36;13.40;99.90
45329;DHT22;72636;48.160;11.428;2023-09-07T05:41:01;13.50;99.90
45329;DHT22;72636;48.160;11.428;2023-09-07T05:43:27;13.60;99.90
45329;DHT22;72636;48.160;11.428;2023-09-07T05:45:53;13.60;99.90
45329;DHT22;72636;48.160;11.428;2023-09-07T05:48:18;13.70;99.90
45329;DHT22;72636;48.160;11.428;2023-09-07T05:50:45;13.80;99.90
45329;DHT22;72636;48.160;11.428;2023-09-07T05:53:11;13.90;99.90
45329;DHT22;72636;48.160;11.428;2023-09-07T05:55:37;14.10;99.90
45329;DHT22;72636;48.160;11.428;2023-09-07T05:58:06;14.20;99.90
45329;DHT22;72636;48.160;11.428;2023-09-07T06:00:33;14.40;99.90
45329;DHT22;72636;48.160;11.428;2023-09-07T06:02:59;14.50;99.90
45329;DHT22;72636;48.160;11.428;2023-09-07T06:05:25;14.60;99.90
45329;DHT22;72636;48.160;11.428;2023-09-07T06:07:50;14.80;99.90
45329;DHT22;72636;48.160;11.428;2023-09-07T06:10:16;14.90;99.90
45329;DHT22;72636;48.160;11.428;2023-09-07T06:12:42;15.10;99.90
45329;DHT22;72636;48.160;11.428;2023-09-07T06:15:08;15.30;99.90
45329;DHT22;72636;48.160;11.428;2023-09-07T06:17:34;15.30;99.90
45329;DHT22;72636;48.160;11.428;2023-09-07T06:20:00;15.50;99.90
45329;DHT22;72636;48.160;11.428;2023-09-07T06:22:26;15.60;99.90
45329;DHT22;72636;48.160;11.428;2023-09-07T06:24:51;15.80;99.90
45329;DHT22;72636;48.160;11.428;2023-09-07T06:27:17;15.90;99.90
45329;DHT22;72636;48.160;11.428;2023-09-07T06:29:43;16.10;99.90
45329;DHT22;72636;48.160;11.428;2023-09-07T06:32:09;16.20;99.90
45329;DHT22;72636;48.160;11.428;2023-09-07T06:34:35;16.40;99.90
45329;DHT22;72636;48.160;11.428;2023-09-07T06:37:01;16.50;99.90
45329;DHT22;72636;48.160;11.428;2023-09-07T06:39:27;16.60;99.90
45329;DHT22;72636;48.160;11.428;2023-09-07T06:41:53;16.80;99.90
45329;DHT22;72636;48.160;11.428;2023-09-07T06:44:19;16.90;99.90
45329;DHT22;72636;48.160;11.428;2023-09-07T06:46:44;17.00;99.90
45329;DHT22;72636;48.160;11.428;2023-09-07T06:49:10;17.10;99.90
45329;DHT22;72636;48.160;11.428;2023-09-07T06:51:35;17.20;99.90
45329;DHT22;72636;48.160;11.428;2023-09-07T06:54:01;17.40;99.90
45329;DHT22;72636;48.160;11.428;2023-09-07T06:56:27;17.50;99.90
45329;DHT22;72636;48.160;11.428;2023-09-07T06:58:54;17.60;99.90
45329;DHT22;72636;48.160;11.428;2023-09-07T07:01:21;17.80;99.90
45329;DHT22;72636;48.160;11.428;2023-09-07T07:03:46;17.90;99.90
45329;DHT22;72636;48.160;11.428;2023-09-07T07:06:12;18.10;99.90
45329;DHT22;72636;48.160;11.428;2023-09-07T07:08:38;18.20;99.90
45329;DHT22;72636;48.160;11.428;2023-09-07T07:11:03;18.30;99.90
45329;DHT22;72636;48.160;11.428;2023-09-07T07:13:29;18.50;99.90
45329;DHT22;72636;48.160;11.428;2023-09-07T07:15:55;18.60;99.90
45329;DHT22;72636;48.160;11.428;2023-09-07T07:18:20;18.70;99.90
45329;DHT22;72636;48.160;11.428;2023-09-07T07:20:46;18.80;99.90
45329;DHT22;72636;48.160;11.428;2023-09-07T07:23:12;18.80;99.90
45329;DHT22;72636;48.160;11.428;2023-09-07T07:25:38;18.90;99.90
45329;DHT22;72636;48.160;11.428;2023-09-07T07:28:07;19.00;99.90
45329;DHT22;72636;48.160;11.428;2023-09-07T07:30:34;19.10;99.90
45329;DHT22;72636;48.160;11.428;2023-09-07T07:33:02;19.10;99.90
45329;DHT22;72636;48.160;11.428;2023-09-07T07:35:29;19.20;99.90
45329;DHT22;72636;48.160;11.428;2023-09-07T07:37:55;19.30;99.90
45329;DHT22;72636;48.160;11.428;2023-09-07T07:40:20;19.40;99.90
45329;DHT22;72636;48.160;11.428;2023-09-07T07:42:47;19.40;99.90
45329;DHT22;72636;48.160;11.428;2023-09-07T07:45:12;19.50;99.90
45329;DHT22;72636;48.160;11.428;2023-09-07T07:47:39;19.50;99.90
45329;DHT22;72636;48.160;11.428;2023-09-07T07:50:05;19.50;99.90
45329;DHT22;72636;48.160;11.428;2023-09-07T07:52:31;19.50;99.90
45329;DHT22;72636;48.160;11.428;2023-09-07T07:54:58;19.60;99.90
45329;DHT22;72636;48.160;11.428;2023-09-07T07:57:23;19.60;99.90
45329;DHT22;72636;48.160;11.428;2023-09-07T07:59:49;19.70;99.90
45329;DHT22;72636;48.160;11.428;2023-09-07T08:02:14;19.70;99.90
45329;DHT22;72636;48.160;11.428;2023-09-07T08:04:40;19.70;99.90
45329;DHT22;72636;48.160;11.428;2023-09-07T08:07:06;19.70;99.90
45329;DHT22;72636;48.160;11.428;2023-09-07T08:09:34;19.70;99.90
45329;DHT22;72636;48.160;11.428;2023-09-07T08:12:00;19.70;99.90
45329;DHT22;72636;48.160;11.428;2023-09-07T08:14:28;19.70;99.90
45329;DHT22;72636;48.160;11.428;2023-09-07T08:16:54;19.80;99.90
45329;DHT22;72636;48.160;11.428;2023-09-07T08:19:20;19.80;99.90
45329;DHT22;72636;48.160;11.428;2023-09-07T08:21:46;19.90;99.90
45329;DHT22;72636;48.160;11.428;2023-09-07T08:24:12;19.90;99.90
45329;DHT22;72636;48.160;11.428;2023-09-07T08:26:37;19.90;99.90
45329;DHT22;72636;48.160;11.428;2023-09-07T08:29:04;20.00;99.90
45329;DHT22;72636;48.160;11.428;2023-09-07T08:31:36;20.00;99.90
45329;DHT22;72636;48.160;11.428;2023-09-07T08:34:06;20.00;99.90
45329;DHT22;72636;48.160;11.428;2023-09-07T08:36:32;20.00;99.90
45329;DHT22;72636;48.160;11.428;2023-09-07T08:39:06;20.10;99.90
45329;DHT22;72636;48.160;11.428;2023-09-07T08:41:37;20.10;99.90
45329;DHT22;72636;48.160;11.428;2023-09-07T08:44:19;20.10;99.90
45329;DHT22;72636;48.160;11.428;2023-09-07T08:46:49;20.20;99.90
45329;DHT22;72636;48.160;11.428;2023-09-07T08:49:15;20.20;99.90
45329;DHT22;72636;48.160;11.428;2023-09-07T08:51:44;20.30;99.90
45329;DHT22;72636;48.160;11.428;2023-09-07T08:54:10;20.30;99.90
45329;DHT22;72636;48.160;11.428;2023-09-07T08:56:37;20.30;99.90
45329;DHT22;72636;48.160;11.428;2023-09-07T08:59:02;20.40;99.90
45329;DHT22;72636;48.160;11.428;2023-09-07T09:01:30;20.50;99.90
45329;DHT22;72636;48.160;11.428;2023-09-07T09:03:57;20.50;99.90
45329;DHT22;72636;48.160;11.428;2023-09-07T09:06:23;20.50;99.90
45329;DHT22;72636;48.160;11.428;2023-09-07T09:08:54;20.60;99.90
45329;DHT22;72636;48.160;11.428;2023-09-07T09:11:21;20.70;99.90
45329;DHT22;72636;48.160;11.428;2023-09-07T09:13:47;20.70;99.90
45329;DHT22;72636;48.160;11.428;2023-09-07T09:16:13;20.80;99.90
45329;DHT22;72636;48.160;11.428;2023-09-07T09:18:52;20.90;99.90
45329;DHT22;72636;48.160;11.428;2023-09-07T09:21:22;21.00;99.90
45329;DHT22;72636;48.160;11.428;2023-09-07T09:23:53;21.00;99.90
45329;DHT22;72636;48.160;11.428;2023-09-07T09:26:19;21.10;99.90
45329;DHT22;72636;48.160;11.428;2023-09-07T09:28:45;21.20;99.90
45329;DHT22;72636;48.160;11.428;2023-09-07T09:31:11;21.30;99.90
45329;DHT22;72636;48.160;11.428;2023-09-07T09:33:41;21.40;99.90
45329;DHT22;72636;48.160;11.428;2023-09-07T09:36:07;21.50;99.90
45329;DHT22;72636;48.160;11.428;2023-09-07T09:38:34;21.60;99.90
45329;DHT22;72636;48.160;11.428;2023-09-07T09:41:01;21.60;99.90
45329;DHT22;72636;48.160;11.428;2023-09-07T09:43:29;21.80;99.90
45329;DHT22;72636;48.160;11.428;2023-09-07T09:45:55;21.90;99.90
45329;DHT22;72636;48.160;11.428;2023-09-07T09:48:20;22.10;99.90
45329;DHT22;72636;48.160;11.428;2023-09-07T09:50:46;22.40;99.90
45329;DHT22;72636;48.160;11.428;2023-09-07T09:53:15;22.70;99.90
45329;DHT22;72636;48.160;11.428;2023-09-07T09:55:44;23.30;99.90
45329;DHT22;72636;48.160;11.428;2023-09-07T09:58:12;24.00;99.90
45329;DHT22;72636;48.160;11.428;2023-09-07T10:00:37;24.90;99.90
45329;DHT22;72636;48.160;11.428;2023-09-07T10:03:08;25.70;99.90
45329;DHT22;72636;48.160;11.428;2023-09-07T10:05:38;26.70;99.90
45329;DHT22;72636;48.160;11.428;2023-09-07T10:08:11;27.70;99.90
45329;DHT22;72636;48.160;11.428;2023-09-07T10:10:37;28.80;99.90
45329;DHT22;72636;48.160;11.428;2023-09-07T10:13:04;29.80;99.90
45329;DHT22;72636;48.160;11.428;2023-09-07T10:15:31;30.60;99.90
45329;DHT22;72636;48.160;11.428;2023-09-07T10:20:46;32.00;99.90
45329;DHT22;72636;48.160;11.428;2023-09-07T10:23:13;32.60;99.90
45329;DHT22;72636;48.160;11.428;2023-09-07T10:25:40;33.10;99.90
45329;DHT22;72636;48.160;11.428;2023-09-07T10:28:05;33.30;99.90
45329;DHT22;72636;48.160;11.428;2023-09-07T10:30:31;33.80;98.10
45329;DHT22;72636;48.160;11.428;2023-09-07T10:32:58;34.60;96.60
45329;DHT22;72636;48.160;11.428;2023-09-07T10:35:24;35.20;93.00
45329;DHT22;72636;48.160;11.428;2023-09-07T10:37:51;35.70;89.50
45329;DHT22;72636;48.160;11.428;2023-09-07T10:40:24;36.10;82.00
45329;DHT22;72636;48.160;11.428;2023-09-07T10:43:01;36.10;76.70
45329;DHT22;72636;48.160;11.428;2023-09-07T10:45:27;35.30;77.60
45329;DHT22;72636;48.160;11.428;2023-09-07T10:47:53;34.60;79.80
45329;DHT22;72636;48.160;11.428;2023-09-07T10:50:19;34.00;85.90
45329;DHT22;72636;48.160;11.428;2023-09-07T10:52:44;33.50;90.20
45329;DHT22;72636;48.160;11.428;2023-09-07T10:55:11;32.90;92.00
45329;DHT22;72636;48.160;11.428;2023-09-07T10:57:44;32.30;93.50
45329;DHT22;72636;48.160;11.428;2023-09-07T11:00:11;31.90;94.40
45329;DHT22;72636;48.160;11.428;2023-09-07T11:02:42;31.40;96.40
45329;DHT22;72636;48.160;11.428;2023-09-07T11:05:10;30.90;99.30
45329;DHT22;72636;48.160;11.428;2023-09-07T11:07:36;30.40;99.20
45329;DHT22;72636;48.160;11.428;2023-09-07T11:10:05;30.20;99.90
45329;DHT22;72636;48.160;11.428;2023-09-07T11:12:36;29.80;99.90
45329;DHT22;72636;48.160;11.428;2023-09-07T11:15:03;29.60;99.90
45329;DHT22;72636;48.160;11.428;2023-09-07T11:17:30;29.40;99.90
45329;DHT22;72636;48.160;11.428;2023-09-07T11:19:55;29.30;99.90
45329;DHT22;72636;48.160;11.428;2023-09-07T11:22:21;29.20;99.90
45329;DHT22;72636;48.160;11.428;2023-09-07T11:24:47;29.10;99.90
45329;DHT22;72636;48.160;11.428;2023-09-07T11:27:13;29.00;99.90
45329;DHT22;72636;48.160;11.428;2023-09-07T11:29:41;28.90;99.90
45329;DHT22;72636;48.160;11.428;2023-09-07T11:32:11;28.80;99.90
45329;DHT22;72636;48.160;11.428;2023-09-07T11:34:51;28.70;99.90
45329;DHT22;72636;48.160;11.428;2023-09-07T11:37:23;28.60;99.90
45329;DHT22;72636;48.160;11.428;2023-09-07T11:39:48;28.50;99.90
45329;DHT22;72636;48.160;11.428;2023-09-07T11:42:14;28.50;99.90
45329;DHT22;72636;48.160;11.428;2023-09-07T11:44:40;28.40;99.90
45329;DHT22;72636;48.160;11.428;2023-09-07T11:47:06;28.40;99.90
45329;DHT22;72636;48.160;11.428;2023-09-07T11:49:32;28.40;99.90
45329;DHT22;72636;48.160;11.428;2023-09-07T11:51:58;28.30;99.90
45329;DHT22;72636;48.160;11.428;2023-09-07T11:54:25;28.30;99.90
45329;DHT22;72636;48.160;11.428;2023-09-07T11:56:50;28.30;99.90
45329;DHT22;72636;48.160;11.428;2023-09-07T11:59:16;28.20;99.90
45329;DHT22;72636;48.160;11.428;2023-09-07T12:01:43;28.30;99.90
45329;DHT22;72636;48.160;11.428;2023-09-07T12:04:09;28.30;99.90
45329;DHT22;72636;48.160;11.428;2023-09-07T12:06:36;28.20;99.90
45329;DHT22;72636;48.160;11.428;2023-09-07T12:09:04;28.20;99.90
45329;DHT22;72636;48.160;11.428;2023-09-07T12:11:30;28.20;99.90
45329;DHT22;72636;48.160;11.428;2023-09-07T12:13:56;28.20;99.90
45329;DHT22;72636;48.160;11.428;2023-09-07T12:16:22;28.20;99.90
45329;DHT22;72636;48.160;11.428;2023-09-07T12:18:47;28.30;99.90
45329;DHT22;72636;48.160;11.428;2023-09-07T12:21:13;28.20;99.90
45329;DHT22;72636;48.160;11.428;2023-09-07T12:23:39;28.30;99.90
45329;DHT22;72636;48.160;11.428;2023-09-07T12:26:04;28.30;99.90
45329;DHT22;72636;48.160;11.428;2023-09-07T12:28:33;28.20;99.90
45329;DHT22;72636;48.160;11.428;2023-09-07T12:30:58;28.30;99.90
45329;DHT22;72636;48.160;11.428;2023-09-07T12:33:26;28.40;99.90
45329;DHT22;72636;48.160;11.428;2023-09-07T12:35:51;28.50;99.90
45329;DHT22;72636;48.160;11.428;2023-09-07T12:38:17;28.50;99.90
45329;DHT22;72636;48.160;11.428;2023-09-07T12:40:45;28.50;99.90
45329;DHT22;72636;48.160;11.428;2023-09-07T12:43:10;28.60;99.90
45329;DHT22;72636;48.160;11.428;2023-09-07T12:45:36;28.60;99.90
45329;DHT22;72636;48.160;11.428;2023-09-07T12:48:02;28.70;99.90
45329;DHT22;72636;48.160;11.428;2023-09-07T12:50:28;28.70;99.90
45329;DHT22;72636;48.160;11.428;2023-09-07T12:52:53;28.80;99.90
45329;DHT22;72636;48.160;11.428;2023-09-07T12:55:23;28.80;99.90
45329;DHT22;72636;48.160;11.428;2023-09-07T12:57:50;28.80;99.90
45329;DHT22;72636;48.160;11.428;2023-09-07T13:00:15;28.80;99.90
45329;DHT22;72636;48.160;11.428;2023-09-07T13:02:41;28.90;99.90
45329;DHT22;72636;48.160;11.428;2023-09-07T13:05:07;28.90;99.90
45329;DHT22;72636;48.160;11.428;2023-09-07T13:07:33;28.90;99.90
45329;DHT22;72636;48.160;11.428;2023-09-07T13:10:03;29.00;99.90
45329;DHT22;72636;48.160;11.428;2023-09-07T13:12:32;29.10;99.90
45329;DHT22;72636;48.160;11.428;2023-09-07T13:14:58;29.30;99.90
45329;DHT22;72636;48.160;11.428;2023-09-07T13:17:24;29.30;99.90
45329;DHT22;72636;48.160;11.428;2023-09-07T13:19:49;29.40;99.90
45329;DHT22;72636;48.160;11.428;2023-09-07T13:22:16;29.60;99.90
45329;DHT22;72636;48.160;11.428;2023-09-07T13:24:45;29.70;99.90
45329;DHT22;72636;48.160;11.428;2023-09-07T13:27:10;29.70;99.90
45329;DHT22;72636;48.160;11.428;2023-09-07T13:29:36;29.90;99.90
45329;DHT22;72636;48.160;11.428;2023-09-07T13:32:03;30.00;99.90
45329;DHT22;72636;48.160;11.428;2023-09-07T13:34:28;30.00;99.90
45329;DHT22;72636;48.160;11.428;2023-09-07T13:36:54;30.30;99.90
45329;DHT22;72636;48.160;11.428;2023-09-07T13:39:20;30.60;99.90
45329;DHT22;72636;48.160;11.428;2023-09-07T13:41:46;30.80;98.90
45329;DHT22;72636;48.160;11.428;2023-09-07T13:44:13;30.90;96.90
45329;DHT22;72636;48.160;11.428;2023-09-07T13:46:39;31.00;94.90
45329;DHT22;72636;48.160;11.428;2023-09-07T13:49:05;31.30;94.40
45329;DHT22;72636;48.160;11.428;2023-09-07T13:51:30;31.60;92.70
45329;DHT22;72636;48.160;11.428;2023-09-07T13:54:04;31.90;91.40
45329;DHT22;72636;48.160;11.428;2023-09-07T13:56:30;32.30;88.20
45329;DHT22;72636;48.160;11.428;2023-09-07T13:58:56;32.50;86.70
45329;DHT22;72636;48.160;11.428;2023-09-07T14:01:22;32.90;77.60
45329;DHT22;72636;48.160;11.428;2023-09-07T14:03:49;33.30;71.20
45329;DHT22;72636;48.160;11.428;2023-09-07T14:06:15;33.80;69.30
45329;DHT22;72636;48.160;11.428;2023-09-07T14:08:40;34.30;61.00
45329;DHT22;72636;48.160;11.428;2023-09-07T14:11:07;34.70;54.60
45329;DHT22;72636;48.160;11.428;2023-09-07T14:13:32;35.10;51.60
45329;DHT22;72636;48.160;11.428;2023-09-07T14:16:01;35.30;50.70
45329;DHT22;72636;48.160;11.428;2023-09-07T14:18:27;35.70;50.40
45329;DHT22;72636;48.160;11.428;2023-09-07T14:20:53;36.00;46.40
45329;DHT22;72636;48.160;11.428;2023-09-07T14:23:23;36.20;46.30
45329;DHT22;72636;48.160;11.428;2023-09-07T14:25:49;36.70;41.10
45329;DHT22;72636;48.160;11.428;2023-09-07T14:28:14;37.00;40.20
45329;DHT22;72636;48.160;11.428;2023-09-07T14:30:40;37.30;41.10
45329;DHT22;72636;48.160;11.428;2023-09-07T14:33:05;37.80;34.60
45329;DHT22;72636;48.160;11.428;2023-09-07T14:35:31;38.00;33.80
45329;DHT22;72636;48.160;11.428;2023-09-07T14:37:57;38.10;35.00
45329;DHT22;72636;48.160;11.428;2023-09-07T14:40:23;38.90;33.80
45329;DHT22;72636;48.160;11.428;2023-09-07T14:42:50;39.40;32.30
45329;DHT22;72636;48.160;11.428;2023-09-07T14:45:16;39.50;30.80
45329;DHT22;72636;48.160;11.428;2023-09-07T14:47:42;39.90;30.70
45329;DHT22;72636;48.160;11.428;2023-09-07T14:50:08;39.80;30.60
45329;DHT22;72636;48.160;11.428;2023-09-07T14:52:34;40.10;30.00
45329;DHT22;72636;48.160;11.428;2023-09-07T14:55:06;40.10;29.80
45329;DHT22;72636;48.160;11.428;2023-09-07T14:57:33;39.80;30.40
45329;DHT22;72636;48.160;11.428;2023-09-07T14:59:59;40.00;29.90
45329;DHT22;72636;48.160;11.428;2023-09-07T15:02:25;40.20;29.50
45329;DHT22;72636;48.160;11.428;2023-09-07T15:04:51;40.30;28.50
45329;DHT22;72636;48.160;11.428;2023-09-07T15:07:16;40.20;28.60
45329;DHT22;72636;48.160;11.428;2023-09-07T15:09:42;40.10;28.80
45329;DHT22;72636;48.160;11.428;2023-09-07T15:12:08;40.10;28.20
45329;DHT22;72636;48.160;11.428;2023-09-07T15:14:33;39.80;29.90